Time;durP1;ratioP1;P1;durP2;ratioP2;P2;SDS_P1;SDS_P2;PMS_P1;PMS_P2;Temp;Humidity;BMP_temperature;BMP_pressure;BME280_temperature;BME280_humidity;BME280_pressure;Samples;Min_cycle;Max_cycle;Signal;HPM_P1;HPM_P2
2021/04/02 00:02:39;;;;;;;45.72;20.50;;;;;;;12.08;59.35;99223.84;5100645;28;20613;-79
2021/04/02 00:05:08;;;;;;;;;;;;;;;12.09;59.28;99230.13;5092573;28;20044;-80
2021/04/02 00:07:35;;;;;;;49.63;20.70;;;;;;;11.93;59.71;99229.34;5100060;28;19920;-79
2021/04/02 00:10:05;;;;;;;44.10;21.52;;;;;;;11.79;59.98;99219.31;5101935;28;20055;-79
2021/04/02 00:12:39;;;;;;;47.17;19.88;;;;;;;11.72;59.77;99212.94;5110677;28;20051;-80
2021/04/02 00:18:00;;;;;;;37.60;17.85;;;;;;;11.65;59.60;99201.94;5108613;27;20052;-80
2021/04/02 00:20:26;;;;;;;39.22;16.83;;;;;;;11.56;59.88;99195.78;5093996;28;20040;-80
2021/04/02 00:22:52;;;;;;;45.58;17.08;;;;;;;11.47;59.89;99205.06;5104530;28;20051;-80
2021/04/02 00:25:20;;;;;;;31.25;13.73;;;;;;;11.51;59.85;99222.72;5111887;27;20052;-79
2021/04/02 00:27:46;;;;;;;32.97;12.65;;;;;;;11.54;58.88;99216.06;5112299;28;20048;-80
2021/04/02 00:30:17;;;;;;;23.05;11.05;;;;;;;11.58;58.61;99226.38;5111219;28;20055;-80
2021/04/02 00:32:43;;;;;;;25.55;11.73;;;;;;;11.59;58.78;99222.63;5095857;28;20104;-80
2021/04/02 00:35:13;;;;;;;29.38;11.07;;;;;;;11.48;58.97;99220.38;5112413;28;20044;-80
2021/04/02 00:37:40;;;;;;;21.60;10.17;;;;;;;11.46;58.44;99226.03;5112428;28;20054;-80
2021/04/02 00:40:15;;;;;;;22.35;9.93;;;;;;;11.38;58.32;99219.84;5105111;28;20051;-80
2021/04/02 00:42:41;;;;;;;24.52;10.18;;;;;;;11.34;58.25;99201.16;5097238;28;20549;-79
2021/04/02 00:45:09;;;;;;;24.75;10.57;;;;;;;11.38;58.31;99214.38;5112205;28;20059;-80
2021/04/02 00:47:35;;;;;;;22.05;9.98;;;;;;;11.29;58.64;99206.34;5104952;28;20043;-79
2021/04/02 00:50:05;;;;;;;19.67;9.57;;;;;;;11.39;58.78;99218.81;5094024;28;20090;-79
2021/04/02 00:52:32;;;;;;;20.95;10.65;;;;;;;11.34;59.44;99220.22;5105104;28;20048;-79
2021/04/02 00:55:04;;;;;;;18.13;8.73;;;;;;;11.25;59.68;99220.50;5092234;28;20131;-80
2021/04/02 00:57:32;;;;;;;21.95;10.05;;;;;;;11.10;59.49;99202.28;5117257;28;20047;-80
2021/04/02 00:59:59;;;;;;;19.30;9.60;;;;;;;11.01;60.00;99206.13;5113142;28;20520;-80
2021/04/02 01:02:53;;;;;;;20.48;10.65;;;;;;;11.15;59.96;99223.50;5111447;28;20040;-80
2021/04/02 01:05:24;;;;;;;19.08;8.82;;;;;;;10.93;60.25;99204.34;5091557;28;20055;-80
2021/04/02 01:07:52;;;;;;;20.15;9.02;;;;;;;10.96;59.94;99209.41;5094568;28;20058;-81
2021/04/02 01:10:20;;;;;;;21.70;8.38;;;;;;;10.88;60.28;99203.22;5103125;28;20172;-80
2021/04/02 01:12:47;;;;;;;15.15;6.75;;;;;;;10.92;59.44;99210.81;5112161;28;20545;-80
2021/04/02 01:15:19;;;;;;;25.55;7.10;;;;;;;10.86;60.15;99224.31;5099864;28;20044;-79
2021/04/02 01:17:50;;;;;;;15.10;6.93;;;;;;;10.77;59.81;99208.06;5112310;28;20138;-80
2021/04/02 01:20:17;;;;;;;20.30;7.43;;;;;;;10.67;59.98;99193.91;5104789;28;20048;-80
2021/04/02 01:22:45;;;;;;;17.10;6.45;;;;;;;10.76;60.52;99224.56;5111717;28;20491;-80
2021/04/02 01:25:19;;;;;;;12.35;6.93;;;;;;;10.55;60.28;99198.97;5112038;28;20048;-79
2021/04/02 01:28:11;;;;;;;11.88;6.65;;;;;;;10.58;60.71;99223.06;5112300;28;20087;-79
2021/04/02 01:30:39;;;;;;;18.00;6.22;;;;;;;10.48;60.54;99205.28;5102693;28;20055;-79
2021/04/02 01:33:16;;;;;;;16.90;6.70;;;;;;;10.51;60.62;99223.94;5109103;28;20126;-79
2021/04/02 01:35:45;;;;;;;12.52;5.85;;;;;;;10.41;60.66;99221.50;5030763;28;20049;-78
2021/04/02 01:38:14;;;;;;;14.93;6.00;;;;;;;10.34;60.49;99213.25;5089949;28;20372;-79
2021/04/02 01:43:54;;;;;;;12.10;5.53;;;;;;;10.23;61.13;99216.34;5079978;27;20056;-79
2021/04/02 01:46:23;;;;;;;16.13;6.13;;;;;;;10.30;61.42;99221.88;5095772;28;20189;-79
2021/04/02 01:49:13;;;;;;;13.10;5.15;;;;;;;10.21;61.22;99230.09;5098561;28;20052;-80
2021/04/02 01:51:43;;;;;;;12.00;5.30;;;;;;;10.14;61.42;99209.28;5095263;28;20051;-79
2021/04/02 01:54:10;;;;;;;13.30;5.15;;;;;;;10.09;61.19;99226.97;5101305;28;20492;-80
2021/04/02 01:56:37;;;;;;;11.90;4.63;;;;;;;10.04;61.44;99210.38;5100709;28;20044;-79
2021/04/02 01:59:05;;;;;;;12.00;5.15;;;;;;;9.92;61.75;99207.22;5115331;28;20043;-79
2021/04/02 02:01:36;;;;;;;12.23;5.07;;;;;;;9.90;61.62;99203.81;5106860;28;20039;-79
2021/04/02 02:04:05;;;;;;;11.98;4.80;;;;;;;9.87;62.56;99208.78;5115480;28;20047;-79
2021/04/02 02:06:33;;;;;;;15.07;5.10;;;;;;;9.81;62.68;99207.63;5106241;28;20096;-79
2021/04/02 02:09:01;;;;;;;10.48;5.00;;;;;;;9.70;63.24;99216.19;5113997;28;20052;-79
2021/04/02 02:11:29;;;;;;;11.80;4.70;;;;;;;9.62;63.75;99208.94;5113425;28;20054;-79
2021/04/02 02:13:58;;;;;;;9.73;4.97;;;;;;;9.47;63.75;99195.25;5114970;28;20044;-79
2021/04/02 02:16:27;;;;;;;8.50;4.60;;;;;;;9.43;63.38;99201.22;5114531;28;20047;-80
2021/04/02 02:18:57;;;;;;;9.90;4.53;;;;;;;9.50;63.58;99202.19;5115234;28;20392;-80
2021/04/02 02:21:24;;;;;;;11.43;4.75;;;;;;;9.50;63.34;99223.88;5097044;28;20044;-79
2021/04/02 02:23:51;;;;;;;13.23;5.10;;;;;;;9.48;63.03;99202.34;5115630;28;20416;-79
2021/04/02 02:26:18;;;;;;;15.40;4.70;;;;;;;9.38;63.63;99199.03;5114916;28;20051;-79
2021/04/02 02:28:45;;;;;;;12.13;5.07;;;;;;;9.42;63.74;99224.78;5101669;28;20062;-79
2021/04/02 02:31:13;;;;;;;13.43;5.57;;;;;;;9.25;64.54;99224.00;5095054;28;20055;-79
2021/04/02 02:33:40;;;;;;;10.77;4.63;;;;;;;9.09;64.81;99211.31;5101990;28;20039;-79
2021/04/02 02:36:08;;;;;;;8.98;5.00;;;;;;;9.12;64.48;99231.84;5114327;28;20105;-79
2021/04/02 02:38:34;;;;;;;12.70;5.28;;;;;;;9.04;64.32;99225.41;5114745;28;20054;-79
2021/04/02 02:41:01;;;;;;;11.95;4.50;;;;;;;8.98;64.45;99228.81;5102257;28;20059;-79
2021/04/02 02:43:27;;;;;;;12.23;4.88;;;;;;;8.92;62.00;99231.38;5095109;28;20581;-79
2021/04/02 02:45:53;;;;;;;7.70;3.42;;;;;;;8.77;60.78;99226.66;5093945;28;20063;-80
2021/04/02 02:48:20;;;;;;;7.40;3.65;;;;;;;8.70;60.37;99228.34;5094965;28;20044;-79
2021/04/02 02:50:51;;;;;;;6.53;3.03;;;;;;;8.71;60.60;99232.75;5111360;28;20643;-79
2021/04/02 02:53:21;;;;;;;9.15;2.88;;;;;;;8.68;59.34;99235.81;5112451;28;20458;-79
2021/04/02 02:55:48;;;;;;;;;;;;;;;8.66;59.53;99238.69;5110440;28;20059;-79
2021/04/02 02:58:16;;;;;;;6.68;2.70;;;;;;;8.62;59.37;99258.19;5114644;28;19919;-78
2021/04/02 03:00:44;;;;;;;9.18;2.50;;;;;;;8.61;59.39;99248.34;5111312;28;20156;-79
2021/04/02 03:03:14;;;;;;;9.65;2.90;;;;;;;8.58;59.79;99241.44;5094458;28;20097;-79
2021/04/02 03:05:42;;;;;;;7.15;2.45;;;;;;;8.53;59.40;99243.78;5111359;28;20047;-79
2021/04/02 03:08:12;;;;;;;13.63;2.83;;;;;;;8.49;59.44;99250.56;5106293;28;20055;-80
2021/04/02 03:10:39;;;;;;;6.60;2.42;;;;;;;8.34;59.24;99244.97;5092730;28;20535;-80
2021/04/02 03:13:06;;;;;;;5.55;2.92;;;;;;;8.37;59.48;99251.88;5101852;28;20047;-79
2021/04/02 03:15:34;;;;;;;5.55;2.47;;;;;;;8.27;59.22;99252.88;5113637;28;20055;-80
2021/04/02 03:18:05;;;;;;;8.52;2.50;;;;;;;8.20;59.15;99270.81;5114361;28;20059;-79
2021/04/02 03:20:34;;;;;;;3.28;2.00;;;;;;;8.11;59.17;99253.75;5114724;28;20043;-79
2021/04/02 03:23:02;;;;;;;4.22;2.10;;;;;;;7.95;59.04;99245.59;5114602;28;20052;-79
2021/04/02 03:25:29;;;;;;;4.13;2.28;;;;;;;7.94;59.65;99252.84;5113482;28;20051;-79
2021/04/02 03:27:57;;;;;;;6.15;2.58;;;;;;;7.93;59.71;99250.28;5114394;28;20126;-79
2021/04/02 03:30:27;;;;;;;6.30;2.50;;;;;;;7.91;59.39;99255.88;5111565;28;20048;-79
2021/04/02 03:33:01;;;;;;;7.57;2.17;;;;;;;7.91;59.94;99257.75;5113955;28;20085;-79
2021/04/02 03:35:29;;;;;;;8.00;2.10;;;;;;;7.86;60.18;99257.38;5109806;28;20044;-79
2021/04/02 03:37:56;;;;;;;4.95;2.85;;;;;;;7.89;60.16;99263.31;5093532;28;20052;-79
2021/04/02 03:40:24;;;;;;;6.65;2.65;;;;;;;7.71;60.43;99257.19;5098141;28;20076;-80
2021/04/02 03:42:54;;;;;;;7.45;2.47;;;;;;;7.65;61.12;99271.34;5098469;28;20077;-80
2021/04/02 03:45:23;;;;;;;8.00;2.75;;;;;;;7.64;60.89;99275.09;5092769;28;20051;-79
2021/04/02 03:47:52;;;;;;;6.43;2.20;;;;;;;7.46;61.49;99269.78;5097971;28;20052;-79
2021/04/02 03:50:20;;;;;;;6.05;2.63;;;;;;;7.37;61.46;99260.75;5107142;28;20048;-80
2021/04/02 03:53:00;;;;;;;5.60;2.47;;;;;;;7.21;61.99;99273.22;5098081;27;20048;-80
2021/04/02 03:55:27;;;;;;;8.32;2.25;;;;;;;7.28;61.50;99288.78;5091594;28;20135;-81
2021/04/02 03:57:55;;;;;;;5.93;2.55;;;;;;;7.20;60.93;99273.38;5110037;28;20058;-80
2021/04/02 04:00:27;;;;;;;4.03;2.05;;;;;;;7.15;61.22;99279.25;5109254;28;20050;-80
2021/04/02 04:02:55;;;;;;;14.38;2.30;;;;;;;7.18;61.36;99283.47;5092325;28;20051;-80
2021/04/02 04:05:22;;;;;;;5.15;2.33;;;;;;;7.07;60.56;99258.41;5092054;28;20172;-80
2021/04/02 04:07:49;;;;;;;5.95;3.03;;;;;;;7.06;60.47;99259.44;5095152;28;20052;-79
2021/04/02 04:10:18;;;;;;;5.20;2.08;;;;;;;6.99;61.14;99282.69;5111260;28;20055;-79
2021/04/02 04:12:48;;;;;;;3.67;2.63;;;;;;;7.01;60.70;99263.63;5094506;28;20504;-80
2021/04/02 04:15:16;;;;;;;5.13;2.13;;;;;;;7.16;60.42;99293.63;5091822;28;20055;-79
2021/04/02 04:17:46;;;;;;;4.22;2.42;;;;;;;6.86;60.96;99282.25;5092358;28;20404;-79
2021/04/02 04:20:16;;;;;;;12.15;2.63;;;;;;;6.77;61.70;99285.91;5092210;28;20063;-79
2021/04/02 04:22:44;;;;;;;6.97;2.22;;;;;;;6.45;62.46;99296.28;5092349;28;20041;-79
2021/04/02 04:25:12;;;;;;;11.35;3.78;;;;;;;6.24;62.81;99277.69;5091822;28;20048;-79
2021/04/02 04:27:41;;;;;;;4.22;2.72;;;;;;;6.27;63.26;99285.50;5092674;28;20044;-80
2021/04/02 04:30:11;;;;;;;8.35;3.15;;;;;;;6.37;62.28;99283.56;5092210;28;20055;-80
2021/04/02 04:32:39;;;;;;;4.35;2.50;;;;;;;6.53;61.78;99282.88;5092269;28;20058;-79
2021/04/02 04:35:09;;;;;;;5.85;2.58;;;;;;;6.62;61.47;99291.88;5091154;28;20051;-79
2021/04/02 04:37:37;;;;;;;4.53;2.33;;;;;;;6.56;61.65;99297.91;5092380;28;20055;-79
2021/04/02 04:40:10;;;;;;;11.18;2.65;;;;;;;6.47;62.32;99301.53;5112534;28;20048;-79
2021/04/02 04:42:38;;;;;;;8.27;2.47;;;;;;;6.17;62.56;99277.50;5099742;28;20051;-80
2021/04/02 04:45:08;;;;;;;6.80;2.97;;;;;;;6.31;62.66;99284.19;5091358;28;20048;-79
2021/04/02 04:47:35;;;;;;;7.40;2.97;;;;;;;6.23;63.10;99292.19;5092169;28;20044;-79
2021/04/02 04:50:02;;;;;;;4.93;3.03;;;;;;;6.25;62.82;99301.00;5093749;28;20409;-79
2021/04/02 04:52:31;;;;;;;4.88;2.70;;;;;;;6.19;63.31;99290.84;5107425;28;20313;-80
2021/04/02 04:55:00;;;;;;;4.93;3.70;;;;;;;6.18;63.16;99292.66;5109950;28;20445;-79
2021/04/02 04:57:30;;;;;;;8.30;3.90;;;;;;;6.16;62.87;99296.53;5112874;28;20055;-80
2021/04/02 04:59:58;;;;;;;;;;;;;;;6.25;63.66;99310.94;5113203;28;20058;-80
2021/04/02 05:02:26;;;;;;;5.55;3.05;;;;;;;6.06;63.90;99284.97;5112797;28;19926;-80
2021/04/02 05:04:53;;;;;;;7.60;3.00;;;;;;;5.92;65.13;99305.19;5112248;28;20051;-79
2021/04/02 05:07:21;;;;;;;12.07;3.78;;;;;;;5.75;64.90;99304.13;5112559;28;20063;-79
2021/04/02 05:09:51;;;;;;;9.07;4.00;;;;;;;5.64;65.32;99307.88;5113990;28;20052;-79
2021/04/02 05:12:18;;;;;;;7.47;3.60;;;;;;;5.81;64.79;99314.31;5115812;28;20183;-79
2021/04/02 05:14:52;;;;;;;7.90;4.53;;;;;;;5.74;64.51;99299.75;5103636;28;20039;-80
2021/04/02 05:17:28;;;;;;;12.88;4.47;;;;;;;5.78;65.19;99320.00;5116583;28;20052;-79
2021/04/02 05:19:56;;;;;;;7.60;3.55;;;;;;;5.75;64.95;99313.09;5107161;28;20438;-77
2021/04/02 05:22:24;;;;;;;6.18;3.25;;;;;;;5.65;65.57;99326.63;5096267;28;20048;-77
2021/04/02 05:24:52;;;;;;;6.80;3.47;;;;;;;5.49;66.00;99313.78;5102707;28;20039;-77
2021/04/02 05:27:21;;;;;;;10.35;3.88;;;;;;;5.44;65.89;99304.44;5116320;28;20093;-77
2021/04/02 05:29:48;;;;;;;8.30;3.42;;;;;;;5.47;66.14;99310.38;5116419;28;20047;-77
2021/04/02 05:32:14;;;;;;;6.70;3.38;;;;;;;5.55;65.95;99298.84;5116114;28;20499;-77
2021/04/02 05:34:40;;;;;;;6.85;3.60;;;;;;;5.70;66.35;99331.56;5115747;28;20044;-78
2021/04/02 05:37:07;;;;;;;8.25;3.63;;;;;;;5.67;66.21;99326.47;5116178;28;20047;-79
2021/04/02 05:39:47;;;;;;;10.15;4.43;;;;;;;5.60;66.32;99325.34;5116444;28;20052;-79
2021/04/02 05:42:20;;;;;;;9.43;4.55;;;;;;;5.64;65.51;99305.19;5116457;27;20059;-79
2021/04/02 05:44:48;;;;;;;10.68;4.53;;;;;;;5.79;65.26;99332.53;5115504;28;20483;-79
2021/04/02 05:47:17;;;;;;;5.57;3.58;;;;;;;5.63;65.11;99295.38;5116534;28;20138;-80
2021/04/02 05:49:44;;;;;;;8.05;3.65;;;;;;;5.76;65.68;99328.25;5115790;28;20538;-80
2021/04/02 05:52:13;;;;;;;11.52;3.78;;;;;;;5.65;65.69;99304.19;5109464;28;20055;-80
2021/04/02 05:54:43;;;;;;;9.75;5.53;;;;;;;6.36;63.42;99308.88;5117031;28;20067;-80
2021/04/02 05:57:10;;;;;;;10.65;3.80;;;;;;;6.91;61.54;99315.91;5107422;28;20047;-80
2021/04/02 05:59:38;;;;;;;13.90;4.57;;;;;;;7.53;58.81;99289.75;5115829;28;20516;-80
2021/04/02 06:02:05;;;;;;;9.85;3.70;;;;;;;7.95;57.58;99291.59;5120678;28;20054;-80
2021/04/02 06:04:32;;;;;;;6.63;4.05;;;;;;;8.32;56.64;99311.97;5094442;28;20119;-80
2021/04/02 06:07:01;;;;;;;10.73;3.58;;;;;;;8.67;55.52;99301.88;5110873;28;20048;-80
2021/04/02 06:09:28;;;;;;;11.02;3.58;;;;;;;8.71;54.82;99283.44;5114999;28;20196;-80
2021/04/02 06:11:58;;;;;;;18.50;3.45;;;;;;;8.59;55.81;99308.13;5100915;28;20066;-80
2021/04/02 06:14:25;;;;;;;5.82;3.38;;;;;;;8.55;55.42;99304.09;5107701;28;20476;-80
2021/04/02 06:16:54;;;;;;;5.22;3.17;;;;;;;8.14;56.76;99312.09;5115492;28;20051;-80
2021/04/02 06:19:21;;;;;;;6.70;3.20;;;;;;;7.71;58.31;99303.19;5114956;28;20047;-80
2021/04/02 06:21:52;;;;;;;7.28;3.28;;;;;;;8.07;57.53;99317.34;5105418;28;20050;-80
2021/04/02 06:24:35;;;;;;;5.00;3.55;;;;;;;7.90;57.58;99296.66;5108259;28;20058;-80
2021/04/02 06:27:04;;;;;;;6.63;4.10;;;;;;;7.87;58.38;99308.63;5110304;28;20052;-80
2021/04/02 06:29:31;;;;;;;4.65;3.30;;;;;;;7.77;58.64;99324.19;5095463;28;20043;-80
2021/04/02 06:31:58;;;;;;;6.38;3.70;;;;;;;7.73;58.63;99299.28;5110160;28;20047;-80
2021/04/02 06:34:27;;;;;;;9.10;3.20;;;;;;;8.24;57.54;99304.69;5108119;28;20036;-80
2021/04/02 06:37:00;;;;;;;11.90;3.80;;;;;;;8.67;56.44;99328.97;5093303;28;20462;-80
2021/04/02 06:39:30;;;;;;;8.95;4.28;;;;;;;8.66;55.61;99314.59;5110596;28;20047;-79
2021/04/02 06:42:12;;;;;;;7.65;4.28;;;;;;;8.89;54.86;99310.34;5114248;28;20055;-79
2021/04/02 06:44:39;;;;;;;5.68;4.22;;;;;;;9.45;53.52;99324.81;5103952;28;20039;-79
2021/04/02 06:47:07;;;;;;;9.70;4.40;;;;;;;9.72;53.32;99336.28;5099917;28;20096;-79
2021/04/02 06:49:33;;;;;;;11.75;4.70;;;;;;;9.41;53.71;99336.19;5109409;27;20052;-79
2021/04/02 06:52:01;;;;;;;9.48;4.00;;;;;;;9.31;54.01;99336.41;5105926;28;20108;-79
2021/04/02 06:54:29;;;;;;;7.18;3.78;;;;;;;9.84;53.46;99337.59;5093175;28;20055;-80
2021/04/02 06:56:58;;;;;;;7.68;3.95;;;;;;;9.82;52.84;99325.22;5100762;28;20044;-80
2021/04/02 06:59:26;;;;;;;14.10;4.80;;;;;;;9.91;53.27;99341.28;5110463;28;20062;-80
2021/04/02 07:01:54;;;;;;;8.38;4.90;;;;;;;9.48;54.01;99343.47;5107219;28;20518;-80
2021/04/02 07:04:25;;;;;;;13.65;5.50;;;;;;;9.54;53.80;99326.53;5113327;28;20052;-80
2021/04/02 07:06:52;;;;;;;12.02;5.35;;;;;;;9.41;54.21;99358.78;5115263;28;20134;-79
2021/04/02 07:09:21;;;;;;;7.32;4.45;;;;;;;9.15;54.95;99356.25;5114743;28;20093;-80
2021/04/02 07:11:49;;;;;;;6.40;4.43;;;;;;;9.27;54.63;99351.31;5112915;27;20075;-80
2021/04/02 07:14:20;;;;;;;12.00;4.78;;;;;;;9.23;54.86;99347.25;5109563;28;20043;-79
2021/04/02 07:16:48;;;;;;;7.75;4.80;;;;;;;8.86;56.04;99350.31;5112141;28;20044;-79
2021/04/02 07:19:15;;;;;;;8.63;5.25;;;;;;;9.08;55.25;99350.69;5093790;28;20056;-80
2021/04/02 07:21:45;;;;;;;12.02;4.53;;;;;;;8.82;55.55;99346.28;5103544;28;20040;-81
2021/04/02 07:24:12;;;;;;;9.27;4.95;;;;;;;8.80;57.25;99348.28;5113763;28;20434;-79
2021/04/02 07:26:39;;;;;;;10.18;5.22;;;;;;;8.67;56.80;99326.25;5114371;28;20051;-80
2021/04/02 07:29:13;;;;;;;10.98;5.00;;;;;;;8.77;56.15;99326.94;5113243;28;20059;-80
2021/04/02 07:31:40;;;;;;;10.68;5.57;;;;;;;8.74;56.84;99348.97;5095099;28;20048;-79
2021/04/02 07:34:08;;;;;;;6.70;4.75;;;;;;;8.75;56.48;99334.41;5099763;28;20499;-80
2021/04/02 07:36:38;;;;;;;10.80;5.03;;;;;;;8.92;56.24;99351.53;5106043;28;20389;-80
2021/04/02 07:39:06;;;;;;;;;;;;;;;8.84;56.76;99356.97;5105035;27;20054;-80
2021/04/02 07:41:38;;;;;;;7.85;4.55;;;;;;;8.63;56.81;99339.31;5094229;28;19931;-80
2021/04/02 07:44:18;;;;;;;8.20;5.32;;;;;;;8.99;56.15;99351.72;5105505;28;20108;-80
2021/04/02 07:50:38;;;;;;;8.80;5.40;;;;;;;8.70;57.15;99334.06;5104573;28;19926;-79
2021/04/02 07:53:05;;;;;;;10.55;5.43;;;;;;;8.90;56.50;99336.44;5060868;28;20051;-80
2021/04/02 07:55:37;;;;;;;9.57;5.45;;;;;;;9.02;56.39;99343.22;5058060;28;20048;-80
2021/04/02 07:58:06;;;;;;;7.70;4.85;;;;;;;8.83;56.79;99345.25;5079239;28;20523;-80
2021/04/02 08:00:36;;;;;;;10.38;6.13;;;;;;;9.28;56.73;99355.75;5091983;28;20055;-80
2021/04/02 08:03:10;;;;;;;;;;;;;;;9.33;56.65;99358.78;5105154;28;20100;-80
2021/04/02 08:05:36;;;;;;;12.23;6.28;;;;;;;9.29;56.31;99354.69;5107647;28;19919;-79
2021/04/02 08:08:03;;;;;;;7.03;5.03;;;;;;;9.43;56.42;99354.00;5097399;28;20052;-79
2021/04/02 08:10:30;;;;;;;10.02;5.45;;;;;;;8.97;57.07;99332.03;5100824;28;20130;-79
2021/04/02 08:12:57;;;;;;;10.30;5.32;;;;;;;9.03;56.65;99358.47;5091357;28;20055;-80
2021/04/02 08:15:23;;;;;;;10.02;6.18;;;;;;;8.89;57.26;99343.72;5095201;28;20056;-80
2021/04/02 08:17:50;;;;;;;8.75;6.57;;;;;;;8.83;57.69;99349.81;5098520;28;20054;-79
2021/04/02 08:20:19;;;;;;;8.00;5.18;;;;;;;9.20;57.30;99354.72;5097867;28;20048;-80
2021/04/02 08:22:48;;;;;;;10.35;5.63;;;;;;;9.46;57.23;99347.41;5104864;28;20056;-80
2021/04/02 08:25:17;;;;;;;9.07;6.27;;;;;;;9.60;55.35;99359.41;5096904;28;20352;-79
2021/04/02 08:27:44;;;;;;;9.75;6.20;;;;;;;9.47;55.99;99349.06;5107677;28;20051;-80
2021/04/02 08:30:17;;;;;;;9.77;6.45;;;;;;;9.75;55.09;99330.50;5090798;28;20052;-80
2021/04/02 08:32:45;;;;;;;8.15;5.75;;;;;;;9.30;55.46;99340.97;5098385;28;20063;-81
2021/04/02 08:35:14;;;;;;;7.95;5.82;;;;;;;9.60;55.36;99349.38;5102147;28;20051;-80
2021/04/02 08:37:56;;;;;;;8.07;5.80;;;;;;;9.56;55.70;99351.59;5108048;28;20053;-79
2021/04/02 08:40:22;;;;;;;8.63;5.80;;;;;;;9.77;55.01;99349.31;5106162;28;20040;-80
2021/04/02 08:42:50;;;;;;;7.72;6.18;;;;;;;9.66;55.29;99361.41;5104331;28;20067;-80
2021/04/02 08:45:19;;;;;;;9.32;5.90;;;;;;;9.25;55.91;99342.53;5103223;28;20500;-79
2021/04/02 08:47:48;;;;;;;9.57;5.28;;;;;;;9.29;56.33;99346.56;5106315;28;20054;-79
2021/04/02 08:50:14;;;;;;;8.32;4.80;;;;;;;9.11;56.46;99346.75;5107332;28;20044;-80
2021/04/02 08:52:48;;;;;;;14.00;6.72;;;;;;;9.12;56.51;99368.31;5103385;28;20044;-80
2021/04/02 08:55:17;;;;;;;10.18;4.55;;;;;;;9.20;56.48;99345.75;5108143;28;20082;-81
2021/04/02 08:57:46;;;;;;;10.53;5.57;;;;;;;9.10;57.46;99356.78;5097608;28;20610;-80
2021/04/02 09:00:13;;;;;;;7.57;5.32;;;;;;;9.03;57.46;99348.47;5107400;28;20055;-80
2021/04/02 09:02:40;;;;;;;8.98;5.50;;;;;;;9.39;56.36;99353.53;5104013;28;20047;-79
2021/04/02 09:05:10;;;;;;;9.95;6.50;;;;;;;9.51;56.25;99359.41;5100646;28;20044;-79
2021/04/02 09:07:58;;;;;;;12.30;6.03;;;;;;;9.38;55.89;99349.09;5102116;28;20043;-80
2021/04/02 09:10:26;;;;;;;11.60;7.53;;;;;;;9.69;55.71;99336.63;5095431;28;20055;-79
2021/04/02 09:13:08;;;;;;;10.20;6.53;;;;;;;9.62;55.09;99339.22;5110308;28;20058;-78
2021/04/02 09:15:46;;;;;;;8.80;5.63;;;;;;;9.83;55.81;99345.91;5101901;28;20563;-80
2021/04/02 09:18:17;;;;;;;10.73;6.68;;;;;;;10.13;54.81;99343.41;5113171;28;20075;-80
2021/04/02 09:20:44;;;;;;;7.63;5.13;;;;;;;9.91;54.95;99344.00;5097006;28;20396;-79
2021/04/02 09:23:20;;;;;;;10.27;5.97;;;;;;;10.00;54.80;99335.84;5101348;28;20117;-79
2021/04/02 09:25:51;;;;;;;7.28;4.68;;;;;;;10.08;54.07;99338.50;5100890;28;20101;-78
2021/04/02 09:28:22;;;;;;;12.02;6.80;;;;;;;10.11;53.82;99327.28;5108327;28;20047;-79
2021/04/02 09:30:48;;;;;;;9.38;5.88;;;;;;;10.12;53.51;99331.69;5099830;28;20081;-79
2021/04/02 09:33:20;;;;;;;8.90;5.70;;;;;;;10.19;53.63;99339.97;5100924;28;20127;-79
2021/04/02 09:35:48;;;;;;;12.48;6.60;;;;;;;10.25;54.62;99326.53;5100814;28;20048;-79
2021/04/02 09:38:15;;;;;;;10.15;5.63;;;;;;;10.24;53.17;99316.69;5109482;28;20526;-80
2021/04/02 09:40:47;;;;;;;8.95;5.30;;;;;;;10.46;53.29;99341.38;5099838;28;20040;-79
2021/04/02 09:43:13;;;;;;;8.95;5.15;;;;;;;10.45;52.17;99334.25;5091069;28;20087;-80
2021/04/02 09:45:40;;;;;;;8.13;4.65;;;;;;;10.57;51.39;99343.69;5089477;28;20044;-79
2021/04/02 09:48:32;;;;;;;10.15;6.65;;;;;;;10.43;51.48;99330.84;5098737;28;20093;-80
2021/04/02 09:51:00;;;;;;;8.60;5.75;;;;;;;10.67;50.52;99337.16;5090434;28;20467;-79
2021/04/02 09:53:29;;;;;;;9.68;5.10;;;;;;;10.62;50.28;99324.94;5098182;28;20044;-79
2021/04/02 09:55:55;;;;;;;11.05;5.82;;;;;;;11.12;51.24;99349.88;5100890;28;20044;-79
2021/04/02 09:58:22;;;;;;;7.78;5.85;;;;;;;10.94;48.91;99330.31;5095381;28;20059;-79
2021/04/02 10:00:48;;;;;;;13.57;6.10;;;;;;;10.94;48.06;99333.03;5098920;28;20048;-79
2021/04/02 10:03:15;;;;;;;10.85;5.82;;;;;;;11.10;48.09;99334.78;5108723;27;20169;-79
2021/04/02 10:05:43;;;;;;;8.85;6.18;;;;;;;10.90;48.19;99358.91;5099481;28;20449;-79
2021/04/02 10:08:10;;;;;;;8.65;5.60;;;;;;;10.87;49.02;99341.09;5109161;28;20048;-79
2021/04/02 10:10:41;;;;;;;8.18;4.80;;;;;;;10.77;50.02;99338.59;5102281;28;20044;-78
2021/04/02 10:13:07;;;;;;;10.82;5.60;;;;;;;10.93;48.63;99334.91;5106748;28;20048;-79
2021/04/02 10:15:33;;;;;;;8.68;5.35;;;;;;;10.97;48.95;99341.69;5105684;28;20074;-80
2021/04/02 10:18:00;;;;;;;8.32;4.68;;;;;;;10.97;48.31;99338.97;5101511;28;20074;-79
2021/04/02 10:20:32;;;;;;;8.98;5.22;;;;;;;10.90;47.35;99337.13;5099300;28;20040;-79
2021/04/02 10:23:05;;;;;;;4.95;4.07;;;;;;;11.03;47.92;99336.53;5102393;28;20047;-79
2021/04/02 10:25:33;;;;;;;6.75;4.60;;;;;;;10.99;47.92;99317.03;5101922;28;20044;-78
2021/04/02 10:28:03;;;;;;;8.65;4.38;;;;;;;11.14;47.40;99333.34;5101548;28;20051;-79
2021/04/02 10:30:32;;;;;;;8.05;4.90;;;;;;;10.97;48.25;99341.69;5101942;28;20134;-78
2021/04/02 10:32:58;;;;;;;7.50;4.95;;;;;;;11.21;47.85;99345.19;5102006;28;20045;-79
2021/04/02 10:35:27;;;;;;;6.05;3.70;;;;;;;10.81;47.98;99330.94;5102032;28;20153;-79
2021/04/02 10:38:23;;;;;;;;;;;;;;;;;;;;;
2021/04/02 10:41:03;;;;;;;5.88;3.83;;;;;;;11.67;47.09;99326.00;5096846;28;20058;-79
2021/04/02 10:43:34;;;;;;;;;;;;;;;11.65;46.37;99346.28;5103950;28;20048;-79
2021/04/02 10:46:04;;;;;;;5.00;3.95;;;;;;;11.24;45.49;99342.09;5098253;28;19994;-79
2021/04/02 10:48:33;;;;;;;6.35;4.00;;;;;;;11.25;45.52;99337.53;5099279;28;20055;-79
2021/04/02 10:51:03;;;;;;;5.60;3.35;;;;;;;11.02;45.53;99313.06;5106550;28;20415;-79
2021/04/02 10:53:32;;;;;;;;;;;;;;;11.25;46.90;99334.81;5101436;28;20043;-80
2021/04/02 10:56:03;;;;;;;6.05;4.03;;;;;;;11.23;46.26;99305.06;5097949;28;20007;-79
2021/04/02 10:58:32;;;;;;;5.45;3.78;;;;;;;11.34;45.22;99314.63;5095890;28;20500;-79
2021/04/02 11:00:59;;;;;;;4.72;3.55;;;;;;;11.46;44.64;99304.13;5103049;28;20446;-79
2021/04/02 11:03:26;;;;;;;3.97;3.47;;;;;;;11.50;44.21;99305.44;5100453;28;20389;-79
2021/04/02 11:05:52;;;;;;;6.97;4.18;;;;;;;11.68;43.72;99300.47;5103914;28;20483;-79
2021/04/02 11:08:19;;;;;;;8.55;4.40;;;;;;;11.55;44.09;99313.03;5101100;28;20043;-78
2021/04/02 11:10:45;;;;;;;6.90;4.18;;;;;;;11.66;44.65;99323.47;5109399;28;20059;-79
2021/04/02 11:13:12;;;;;;;10.20;3.65;;;;;;;11.44;44.50;99331.53;5109798;28;20055;-78
2021/04/02 11:15:42;;;;;;;9.20;4.43;;;;;;;11.63;44.79;99308.34;5112916;28;20070;-79
2021/04/02 11:18:15;;;;;;;6.80;4.63;;;;;;;11.41;44.93;99325.63;5113602;28;20058;-79
2021/04/02 11:20:45;;;;;;;5.95;3.88;;;;;;;11.65;43.95;99305.44;5112255;28;20044;-79
2021/04/02 11:23:17;;;;;;;4.57;3.03;;;;;;;11.60;43.02;99289.66;5119620;27;20049;-79
2021/04/02 11:25:44;;;;;;;4.53;3.28;;;;;;;11.79;42.96;99296.41;5114444;27;20135;-79
2021/04/02 11:28:10;;;;;;;8.77;4.95;;;;;;;11.85;43.58;99303.00;5095664;28;20051;-79
2021/04/02 11:30:38;;;;;;;7.45;3.47;;;;;;;11.93;42.69;99302.91;5092796;28;20484;-79
2021/04/02 11:33:05;;;;;;;5.68;3.33;;;;;;;12.00;43.14;99316.63;5104244;28;20059;-79
2021/04/02 11:35:33;;;;;;;6.63;3.45;;;;;;;12.09;42.51;99281.91;5108004;28;20109;-79
2021/04/02 11:37:59;;;;;;;5.30;3.47;;;;;;;12.27;42.69;99270.59;5107224;28;20124;-79
2021/04/02 11:40:26;;;;;;;4.20;2.97;;;;;;;12.29;42.93;99271.25;5112335;28;20134;-79
2021/04/02 11:42:53;;;;;;;6.43;3.83;;;;;;;12.26;41.72;99279.81;5111179;27;20044;-79
2021/04/02 11:45:19;;;;;;;6.60;3.92;;;;;;;12.22;42.26;99279.34;5110319;28;20051;-79
2021/04/02 11:47:50;;;;;;;5.40;3.70;;;;;;;12.41;41.98;99277.03;5103727;28;20039;-79
2021/04/02 11:50:16;;;;;;;3.97;2.70;;;;;;;12.24;42.09;99274.56;5108524;28;20135;-79
2021/04/02 11:52:47;;;;;;;3.70;2.63;;;;;;;12.40;41.83;99287.09;5097599;28;20070;-79
2021/04/02 11:55:14;;;;;;;4.55;3.33;;;;;;;12.46;40.75;99277.28;5103468;27;20043;-79
2021/04/02 11:57:43;;;;;;;4.45;3.25;;;;;;;12.62;41.54;99287.94;5102541;27;20079;-79